sensor_id;sensor_type;location;lat;lon;timestamp;P1;durP1;ratioP1;P2;durP2;ratioP2
11962;SDS011;62678;52.130;5.584;2023-06-22T00:00:10;8.38;;;7.10;;
11962;SDS011;62678;52.130;5.584;2023-06-22T00:02:37;8.02;;;7.03;;
11962;SDS011;62678;52.130;5.584;2023-06-22T00:05:05;8.10;;;6.93;;
11962;SDS011;62678;52.130;5.584;2023-06-22T00:07:32;8.18;;;7.30;;
11962;SDS011;62678;52.130;5.584;2023-06-22T00:10:00;8.30;;;7.47;;
11962;SDS011;62678;52.130;5.584;2023-06-22T00:12:27;7.80;;;7.10;;
11962;SDS011;62678;52.130;5.584;2023-06-22T00:14:54;7.93;;;7.07;;
11962;SDS011;62678;52.130;5.584;2023-06-22T00:17:21;10.80;;;7.28;;
11962;SDS011;62678;52.130;5.584;2023-06-22T00:19:48;8.55;;;7.65;;
11962;SDS011;62678;52.130;5.584;2023-06-22T00:22:18;9.38;;;7.53;;
11962;SDS011;62678;52.130;5.584;2023-06-22T00:24:53;7.93;;;7.05;;
11962;SDS011;62678;52.130;5.584;2023-06-22T00:27:22;8.68;;;7.75;;
11962;SDS011;62678;52.130;5.584;2023-06-22T00:29:48;8.32;;;7.25;;
11962;SDS011;62678;52.130;5.584;2023-06-22T00:32:15;10.98;;;7.75;;
11962;SDS011;62678;52.130;5.584;2023-06-22T00:34:43;9.02;;;7.63;;
11962;SDS011;62678;52.130;5.584;2023-06-22T00:37:10;9.57;;;8.35;;
11962;SDS011;62678;52.130;5.584;2023-06-22T00:39:37;10.77;;;8.55;;
11962;SDS011;62678;52.130;5.584;2023-06-22T00:42:04;9.55;;;8.10;;
11962;SDS011;62678;52.130;5.584;2023-06-22T00:44:33;11.30;;;8.82;;
11962;SDS011;62678;52.130;5.584;2023-06-22T00:47:00;10.90;;;8.70;;
11962;SDS011;62678;52.130;5.584;2023-06-22T00:49:26;10.35;;;9.13;;
11962;SDS011;62678;52.130;5.584;2023-06-22T00:51:54;11.57;;;9.18;;
11962;SDS011;62678;52.130;5.584;2023-06-22T00:54:21;10.27;;;8.60;;
11962;SDS011;62678;52.130;5.584;2023-06-22T00:56:49;9.35;;;8.45;;
11962;SDS011;62678;52.130;5.584;2023-06-22T00:59:17;10.80;;;8.38;;
11962;SDS011;62678;52.130;5.584;2023-06-22T01:01:45;9.70;;;8.60;;
11962;SDS011;62678;52.130;5.584;2023-06-22T01:04:13;11.55;;;9.32;;
11962;SDS011;62678;52.130;5.584;2023-06-22T01:06:41;8.95;;;8.02;;
11962;SDS011;62678;52.130;5.584;2023-06-22T01:09:12;11.02;;;8.70;;
11962;SDS011;62678;52.130;5.584;2023-06-22T01:11:42;10.57;;;8.70;;
11962;SDS011;62678;52.130;5.584;2023-06-22T01:14:14;10.45;;;9.20;;
11962;SDS011;62678;52.130;5.584;2023-06-22T01:16:48;9.38;;;8.30;;
11962;SDS011;62678;52.130;5.584;2023-06-22T01:19:20;10.10;;;8.52;;
11962;SDS011;62678;52.130;5.584;2023-06-22T01:22:00;11.23;;;9.25;;
11962;SDS011;62678;52.130;5.584;2023-06-22T01:24:30;9.90;;;8.57;;
11962;SDS011;62678;52.130;5.584;2023-06-22T01:27:09;10.75;;;9.15;;
11962;SDS011;62678;52.130;5.584;2023-06-22T01:29:42;10.50;;;9.40;;
11962;SDS011;62678;52.130;5.584;2023-06-22T01:32:11;9.70;;;8.70;;
11962;SDS011;62678;52.130;5.584;2023-06-22T01:34:39;12.98;;;8.77;;
11962;SDS011;62678;52.130;5.584;2023-06-22T01:37:07;10.88;;;8.70;;
11962;SDS011;62678;52.130;5.584;2023-06-22T01:39:35;10.75;;;9.55;;
11962;SDS011;62678;52.130;5.584;2023-06-22T01:42:02;11.50;;;9.70;;
11962;SDS011;62678;52.130;5.584;2023-06-22T01:44:31;11.00;;;9.55;;
11962;SDS011;62678;52.130;5.584;2023-06-22T01:47:00;11.40;;;8.82;;
11962;SDS011;62678;52.130;5.584;2023-06-22T01:49:27;13.15;;;10.60;;
11962;SDS011;62678;52.130;5.584;2023-06-22T01:51:55;10.15;;;9.05;;
11962;SDS011;62678;52.130;5.584;2023-06-22T01:54:22;10.27;;;9.18;;
11962;SDS011;62678;52.130;5.584;2023-06-22T01:56:49;10.57;;;9.43;;
11962;SDS011;62678;52.130;5.584;2023-06-22T01:59:18;11.80;;;9.52;;
11962;SDS011;62678;52.130;5.584;2023-06-22T02:01:52;12.68;;;10.20;;
11962;SDS011;62678;52.130;5.584;2023-06-22T02:04:26;11.45;;;9.70;;
11962;SDS011;62678;52.130;5.584;2023-06-22T02:06:56;12.60;;;10.00;;
11962;SDS011;62678;52.130;5.584;2023-06-22T02:09:31;13.75;;;10.73;;
11962;SDS011;62678;52.130;5.584;2023-06-22T02:12:01;12.40;;;11.10;;
11962;SDS011;62678;52.130;5.584;2023-06-22T02:14:31;13.32;;;10.40;;
11962;SDS011;62678;52.130;5.584;2023-06-22T02:16:59;12.27;;;10.05;;
11962;SDS011;62678;52.130;5.584;2023-06-22T02:19:27;12.43;;;11.10;;
11962;SDS011;62678;52.130;5.584;2023-06-22T02:21:58;13.15;;;10.90;;
11962;SDS011;62678;52.130;5.584;2023-06-22T02:24:25;12.25;;;10.05;;
11962;SDS011;62678;52.130;5.584;2023-06-22T02:26:52;15.30;;;11.02;;
11962;SDS011;62678;52.130;5.584;2023-06-22T02:29:19;12.13;;;10.75;;
11962;SDS011;62678;52.130;5.584;2023-06-22T02:31:46;14.43;;;12.00;;
11962;SDS011;62678;52.130;5.584;2023-06-22T02:34:12;15.43;;;11.55;;
11962;SDS011;62678;52.130;5.584;2023-06-22T02:36:44;14.18;;;10.63;;
11962;SDS011;62678;52.130;5.584;2023-06-22T02:39:16;14.88;;;11.88;;
11962;SDS011;62678;52.130;5.584;2023-06-22T02:41:43;14.93;;;11.85;;
11962;SDS011;62678;52.130;5.584;2023-06-22T02:44:10;15.82;;;12.57;;
11962;SDS011;62678;52.130;5.584;2023-06-22T02:46:37;14.68;;;11.88;;
11962;SDS011;62678;52.130;5.584;2023-06-22T02:49:04;17.58;;;12.38;;
11962;SDS011;62678;52.130;5.584;2023-06-22T02:51:32;13.80;;;11.80;;
11962;SDS011;62678;52.130;5.584;2023-06-22T02:54:02;14.55;;;11.63;;
11962;SDS011;62678;52.130;5.584;2023-06-22T02:56:29;13.93;;;12.27;;
11962;SDS011;62678;52.130;5.584;2023-06-22T02:58:56;14.93;;;12.18;;
11962;SDS011;62678;52.130;5.584;2023-06-22T03:01:25;16.17;;;12.32;;
11962;SDS011;62678;52.130;5.584;2023-06-22T03:03:53;13.25;;;11.70;;
11962;SDS011;62678;52.130;5.584;2023-06-22T03:06:20;15.52;;;12.45;;
11962;SDS011;62678;52.130;5.584;2023-06-22T03:08:48;16.02;;;12.52;;
11962;SDS011;62678;52.130;5.584;2023-06-22T03:11:17;14.02;;;12.32;;
11962;SDS011;62678;52.130;5.584;2023-06-22T03:13:44;17.48;;;13.27;;
11962;SDS011;62678;52.130;5.584;2023-06-22T03:16:11;15.45;;;12.52;;
11962;SDS011;62678;52.130;5.584;2023-06-22T03:18:38;15.00;;;12.40;;
11962;SDS011;62678;52.130;5.584;2023-06-22T03:21:05;19.77;;;13.57;;
11962;SDS011;62678;52.130;5.584;2023-06-22T03:23:32;18.27;;;14.23;;
11962;SDS011;62678;52.130;5.584;2023-06-22T03:25:59;19.33;;;13.93;;
11962;SDS011;62678;52.130;5.584;2023-06-22T03:28:28;18.77;;;15.55;;
11962;SDS011;62678;52.130;5.584;2023-06-22T03:30:56;16.73;;;14.48;;
11962;SDS011;62678;52.130;5.584;2023-06-22T03:33:24;18.85;;;14.43;;
11962;SDS011;62678;52.130;5.584;2023-06-22T03:35:51;18.67;;;15.05;;
11962;SDS011;62678;52.130;5.584;2023-06-22T03:38:18;20.52;;;15.40;;
11962;SDS011;62678;52.130;5.584;2023-06-22T03:40:46;19.25;;;13.93;;
11962;SDS011;62678;52.130;5.584;2023-06-22T03:43:13;23.75;;;15.40;;
11962;SDS011;62678;52.130;5.584;2023-06-22T03:45:41;30.73;;;16.50;;
11962;SDS011;62678;52.130;5.584;2023-06-22T03:48:10;23.30;;;15.80;;
11962;SDS011;62678;52.130;5.584;2023-06-22T03:50:37;24.70;;;16.92;;
11962;SDS011;62678;52.130;5.584;2023-06-22T03:53:04;25.02;;;16.55;;
11962;SDS011;62678;52.130;5.584;2023-06-22T03:55:31;24.75;;;16.23;;
11962;SDS011;62678;52.130;5.584;2023-06-22T03:57:58;23.67;;;18.13;;
11962;SDS011;62678;52.130;5.584;2023-06-22T04:00:30;22.65;;;18.30;;
11962;SDS011;62678;52.130;5.584;2023-06-22T04:02:59;26.80;;;19.58;;
11962;SDS011;62678;52.130;5.584;2023-06-22T04:05:26;27.75;;;20.05;;
11962;SDS011;62678;52.130;5.584;2023-06-22T04:07:53;30.92;;;21.15;;
11962;SDS011;62678;52.130;5.584;2023-06-22T04:10:20;27.50;;;20.33;;
11962;SDS011;62678;52.130;5.584;2023-06-22T04:12:46;27.60;;;21.15;;
11962;SDS011;62678;52.130;5.584;2023-06-22T04:15:13;26.98;;;20.35;;
11962;SDS011;62678;52.130;5.584;2023-06-22T04:17:40;28.63;;;22.30;;
11962;SDS011;62678;52.130;5.584;2023-06-22T04:20:09;27.27;;;21.85;;
11962;SDS011;62678;52.130;5.584;2023-06-22T04:22:36;30.15;;;21.88;;
11962;SDS011;62678;52.130;5.584;2023-06-22T04:25:03;29.30;;;22.70;;
11962;SDS011;62678;52.130;5.584;2023-06-22T04:27:32;33.53;;;23.88;;
11962;SDS011;62678;52.130;5.584;2023-06-22T04:30:02;30.55;;;23.90;;
11962;SDS011;62678;52.130;5.584;2023-06-22T04:32:32;33.00;;;23.42;;
11962;SDS011;62678;52.130;5.584;2023-06-22T04:34:59;31.75;;;24.27;;
11962;SDS011;62678;52.130;5.584;2023-06-22T04:37:27;38.85;;;27.52;;
11962;SDS011;62678;52.130;5.584;2023-06-22T04:39:54;35.25;;;27.05;;
11962;SDS011;62678;52.130;5.584;2023-06-22T04:42:21;37.63;;;27.75;;
11962;SDS011;62678;52.130;5.584;2023-06-22T04:44:48;37.85;;;27.23;;
11962;SDS011;62678;52.130;5.584;2023-06-22T04:47:15;39.53;;;28.30;;
11962;SDS011;62678;52.130;5.584;2023-06-22T04:49:42;38.03;;;28.65;;
11962;SDS011;62678;52.130;5.584;2023-06-22T04:52:10;38.28;;;29.40;;
11962;SDS011;62678;52.130;5.584;2023-06-22T04:54:39;41.20;;;30.10;;
11962;SDS011;62678;52.130;5.584;2023-06-22T04:57:12;41.22;;;30.20;;
11962;SDS011;62678;52.130;5.584;2023-06-22T04:59:40;44.03;;;29.73;;
11962;SDS011;62678;52.130;5.584;2023-06-22T05:02:07;35.28;;;28.13;;
11962;SDS011;62678;52.130;5.584;2023-06-22T05:04:34;37.65;;;29.38;;
11962;SDS011;62678;52.130;5.584;2023-06-22T05:07:03;38.70;;;30.67;;
11962;SDS011;62678;52.130;5.584;2023-06-22T05:09:31;43.38;;;31.52;;
11962;SDS011;62678;52.130;5.584;2023-06-22T05:12:00;41.63;;;31.20;;
11962;SDS011;62678;52.130;5.584;2023-06-22T05:14:28;48.42;;;33.67;;
11962;SDS011;62678;52.130;5.584;2023-06-22T05:16:55;45.67;;;34.33;;
11962;SDS011;62678;52.130;5.584;2023-06-22T05:19:24;43.58;;;33.42;;
11962;SDS011;62678;52.130;5.584;2023-06-22T05:21:58;43.50;;;34.72;;
11962;SDS011;62678;52.130;5.584;2023-06-22T05:24:25;45.22;;;33.80;;
11962;SDS011;62678;52.130;5.584;2023-06-22T05:26:53;43.25;;;34.13;;
11962;SDS011;62678;52.130;5.584;2023-06-22T05:29:21;44.05;;;34.38;;
11962;SDS011;62678;52.130;5.584;2023-06-22T05:31:48;45.47;;;34.55;;
11962;SDS011;62678;52.130;5.584;2023-06-22T05:34:15;44.97;;;34.58;;
11962;SDS011;62678;52.130;5.584;2023-06-22T05:36:42;46.30;;;34.53;;
11962;SDS011;62678;52.130;5.584;2023-06-22T05:39:13;41.88;;;33.72;;
11962;SDS011;62678;52.130;5.584;2023-06-22T05:41:41;43.67;;;34.13;;
11962;SDS011;62678;52.130;5.584;2023-06-22T05:44:09;44.25;;;32.30;;
11962;SDS011;62678;52.130;5.584;2023-06-22T05:46:39;40.03;;;31.75;;
11962;SDS011;62678;52.130;5.584;2023-06-22T05:49:09;40.47;;;31.55;;
11962;SDS011;62678;52.130;5.584;2023-06-22T05:51:36;38.22;;;30.88;;
11962;SDS011;62678;52.130;5.584;2023-06-22T05:54:03;38.28;;;30.60;;
11962;SDS011;62678;52.130;5.584;2023-06-22T05:56:30;38.10;;;30.60;;
11962;SDS011;62678;52.130;5.584;2023-06-22T05:58:57;34.35;;;28.58;;
11962;SDS011;62678;52.130;5.584;2023-06-22T06:01:24;38.10;;;29.00;;
11962;SDS011;62678;52.130;5.584;2023-06-22T06:03:53;33.88;;;28.30;;
11962;SDS011;62678;52.130;5.584;2023-06-22T06:06:20;36.10;;;28.67;;
11962;SDS011;62678;52.130;5.584;2023-06-22T06:08:53;30.25;;;26.77;;
11962;SDS011;62678;52.130;5.584;2023-06-22T06:11:23;31.50;;;27.35;;
11962;SDS011;62678;52.130;5.584;2023-06-22T06:13:51;34.85;;;27.92;;
11962;SDS011;62678;52.130;5.584;2023-06-22T06:16:18;32.40;;;27.02;;
11962;SDS011;62678;52.130;5.584;2023-06-22T06:18:45;33.42;;;26.58;;
11962;SDS011;62678;52.130;5.584;2023-06-22T06:21:15;29.05;;;25.70;;
11962;SDS011;62678;52.130;5.584;2023-06-22T06:23:42;31.02;;;25.38;;
11962;SDS011;62678;52.130;5.584;2023-06-22T06:26:09;31.52;;;26.38;;
11962;SDS011;62678;52.130;5.584;2023-06-22T06:28:36;31.52;;;24.60;;
11962;SDS011;62678;52.130;5.584;2023-06-22T06:31:04;29.38;;;24.83;;
11962;SDS011;62678;52.130;5.584;2023-06-22T06:33:32;32.13;;;24.27;;
11962;SDS011;62678;52.130;5.584;2023-06-22T06:35:59;30.65;;;25.45;;
11962;SDS011;62678;52.130;5.584;2023-06-22T06:38:29;31.27;;;25.33;;
11962;SDS011;62678;52.130;5.584;2023-06-22T06:40:57;32.45;;;25.33;;
11962;SDS011;62678;52.130;5.584;2023-06-22T06:43:25;29.27;;;24.23;;
11962;SDS011;62678;52.130;5.584;2023-06-22T06:45:52;28.63;;;24.38;;
11962;SDS011;62678;52.130;5.584;2023-06-22T06:48:19;28.38;;;23.40;;
11962;SDS011;62678;52.130;5.584;2023-06-22T06:50:45;26.70;;;23.10;;
11962;SDS011;62678;52.130;5.584;2023-06-22T06:53:12;30.63;;;24.52;;
11962;SDS011;62678;52.130;5.584;2023-06-22T06:55:41;27.55;;;22.77;;
11962;SDS011;62678;52.130;5.584;2023-06-22T06:58:10;26.20;;;21.85;;
11962;SDS011;62678;52.130;5.584;2023-06-22T07:00:38;27.83;;;21.30;;
11962;SDS011;62678;52.130;5.584;2023-06-22T07:03:05;26.60;;;22.33;;
11962;SDS011;62678;52.130;5.584;2023-06-22T07:05:33;24.42;;;20.60;;
11962;SDS011;62678;52.130;5.584;2023-06-22T07:08:00;22.88;;;19.48;;
11962;SDS011;62678;52.130;5.584;2023-06-22T07:10:28;22.75;;;19.20;;
11962;SDS011;62678;52.130;5.584;2023-06-22T07:12:57;22.73;;;17.80;;
11962;SDS011;62678;52.130;5.584;2023-06-22T07:15:24;21.65;;;18.90;;
11962;SDS011;62678;52.130;5.584;2023-06-22T07:17:51;21.42;;;18.85;;
11962;SDS011;62678;52.130;5.584;2023-06-22T07:20:18;20.67;;;17.38;;
11962;SDS011;62678;52.130;5.584;2023-06-22T07:22:45;21.50;;;16.35;;
11962;SDS011;62678;52.130;5.584;2023-06-22T07:25:12;22.17;;;16.38;;
11962;SDS011;62678;52.130;5.584;2023-06-22T07:27:43;20.23;;;16.77;;
11962;SDS011;62678;52.130;5.584;2023-06-22T07:30:14;17.83;;;15.90;;
11962;SDS011;62678;52.130;5.584;2023-06-22T07:32:41;18.30;;;15.93;;
11962;SDS011;62678;52.130;5.584;2023-06-22T07:35:08;18.30;;;15.18;;
11962;SDS011;62678;52.130;5.584;2023-06-22T07:37:35;19.08;;;14.95;;
11962;SDS011;62678;52.130;5.584;2023-06-22T07:40:03;19.10;;;14.43;;
11962;SDS011;62678;52.130;5.584;2023-06-22T07:42:31;18.40;;;14.45;;
11962;SDS011;62678;52.130;5.584;2023-06-22T07:44:59;16.42;;;13.95;;
11962;SDS011;62678;52.130;5.584;2023-06-22T07:47:29;14.98;;;13.25;;
11962;SDS011;62678;52.130;5.584;2023-06-22T07:49:58;16.33;;;13.23;;
11962;SDS011;62678;52.130;5.584;2023-06-22T07:52:26;16.98;;;13.38;;
11962;SDS011;62678;52.130;5.584;2023-06-22T07:54:54;16.00;;;12.45;;
11962;SDS011;62678;52.130;5.584;2023-06-22T07:57:21;18.83;;;12.40;;
11962;SDS011;62678;52.130;5.584;2023-06-22T07:59:48;18.52;;;12.73;;
11962;SDS011;62678;52.130;5.584;2023-06-22T08:02:15;15.73;;;12.38;;
11962;SDS011;62678;52.130;5.584;2023-06-22T08:04:43;16.55;;;13.02;;
11962;SDS011;62678;52.130;5.584;2023-06-22T08:07:10;14.38;;;11.80;;
11962;SDS011;62678;52.130;5.584;2023-06-22T08:09:38;16.08;;;12.65;;
11962;SDS011;62678;52.130;5.584;2023-06-22T08:12:05;14.55;;;12.43;;
11962;SDS011;62678;52.130;5.584;2023-06-22T08:14:33;16.10;;;12.27;;
11962;SDS011;62678;52.130;5.584;2023-06-22T08:17:04;16.05;;;11.77;;
11962;SDS011;62678;52.130;5.584;2023-06-22T08:19:31;14.25;;;11.93;;
11962;SDS011;62678;52.130;5.584;2023-06-22T08:21:59;13.18;;;11.70;;
11962;SDS011;62678;52.130;5.584;2023-06-22T08:24:26;15.80;;;10.90;;
11962;SDS011;62678;52.130;5.584;2023-06-22T08:26:55;14.80;;;11.52;;
11962;SDS011;62678;52.130;5.584;2023-06-22T08:29:22;13.55;;;10.60;;
11962;SDS011;62678;52.130;5.584;2023-06-22T08:31:49;12.05;;;10.77;;
11962;SDS011;62678;52.130;5.584;2023-06-22T08:34:16;12.48;;;10.25;;
11962;SDS011;62678;52.130;5.584;2023-06-22T08:36:46;11.57;;;9.23;;
11962;SDS011;62678;52.130;5.584;2023-06-22T08:39:18;12.00;;;9.95;;
11962;SDS011;62678;52.130;5.584;2023-06-22T08:41:45;11.52;;;9.57;;
11962;SDS011;62678;52.130;5.584;2023-06-22T08:44:12;10.05;;;8.82;;
11962;SDS011;62678;52.130;5.584;2023-06-22T08:46:39;10.63;;;8.50;;
11962;SDS011;62678;52.130;5.584;2023-06-22T08:49:07;7.97;;;7.18;;
11962;SDS011;62678;52.130;5.584;2023-06-22T08:51:38;9.00;;;6.30;;
11962;SDS011;62678;52.130;5.584;2023-06-22T08:54:05;7.22;;;6.35;;
11962;SDS011;62678;52.130;5.584;2023-06-22T08:56:33;9.27;;;6.68;;
11962;SDS011;62678;52.130;5.584;2023-06-22T08:59:00;9.23;;;7.50;;
11962;SDS011;62678;52.130;5.584;2023-06-22T09:01:27;8.43;;;7.53;;
11962;SDS011;62678;52.130;5.584;2023-06-22T09:03:54;10.10;;;7.32;;
11962;SDS011;62678;52.130;5.584;2023-06-22T09:06:22;7.50;;;6.80;;
11962;SDS011;62678;52.130;5.584;2023-06-22T09:08:50;8.93;;;6.93;;
11962;SDS011;62678;52.130;5.584;2023-06-22T09:11:17;9.63;;;6.63;;
11962;SDS011;62678;52.130;5.584;2023-06-22T09:13:45;7.15;;;5.82;;
11962;SDS011;62678;52.130;5.584;2023-06-22T09:16:12;7.80;;;5.03;;
11962;SDS011;62678;52.130;5.584;2023-06-22T09:18:39;5.88;;;4.88;;
11962;SDS011;62678;52.130;5.584;2023-06-22T09:21:07;5.20;;;4.70;;
11962;SDS011;62678;52.130;5.584;2023-06-22T09:23:33;8.30;;;4.63;;
11962;SDS011;62678;52.130;5.584;2023-06-22T09:26:00;9.55;;;5.97;;
11962;SDS011;62678;52.130;5.584;2023-06-22T09:28:29;6.95;;;6.00;;
11962;SDS011;62678;52.130;5.584;2023-06-22T09:30:57;7.47;;;5.82;;
11962;SDS011;62678;52.130;5.584;2023-06-22T09:33:25;10.23;;;5.95;;
11962;SDS011;62678;52.130;5.584;2023-06-22T09:35:52;6.00;;;4.90;;
11962;SDS011;62678;52.130;5.584;2023-06-22T09:38:19;7.25;;;4.20;;
11962;SDS011;62678;52.130;5.584;2023-06-22T09:40:46;6.20;;;4.82;;
11962;SDS011;62678;52.130;5.584;2023-06-22T09:43:13;6.25;;;5.28;;
11962;SDS011;62678;52.130;5.584;2023-06-22T09:45:40;6.63;;;5.28;;
11962;SDS011;62678;52.130;5.584;2023-06-22T09:48:08;6.40;;;4.78;;
11962;SDS011;62678;52.130;5.584;2023-06-22T09:50:35;6.63;;;4.35;;
11962;SDS011;62678;52.130;5.584;2023-06-22T09:53:02;6.07;;;5.07;;
11962;SDS011;62678;52.130;5.584;2023-06-22T09:55:29;7.30;;;5.70;;
11962;SDS011;62678;52.130;5.584;2023-06-22T09:57:56;5.70;;;5.10;;
11962;SDS011;62678;52.130;5.584;2023-06-22T10:00:23;7.20;;;5.25;;
11962;SDS011;62678;52.130;5.584;2023-06-22T10:02:51;7.13;;;5.60;;
11962;SDS011;62678;52.130;5.584;2023-06-22T10:05:20;7.43;;;5.93;;
11962;SDS011;62678;52.130;5.584;2023-06-22T10:07:47;6.88;;;5.65;;
11962;SDS011;62678;52.130;5.584;2023-06-22T10:10:14;8.27;;;6.63;;
11962;SDS011;62678;52.130;5.584;2023-06-22T10:12:41;7.38;;;6.60;;
11962;SDS011;62678;52.130;5.584;2023-06-22T10:15:10;7.22;;;6.53;;
11962;SDS011;62678;52.130;5.584;2023-06-22T10:17:37;11.30;;;7.32;;
11962;SDS011;62678;52.130;5.584;2023-06-22T10:20:05;7.85;;;6.85;;
11962;SDS011;62678;52.130;5.584;2023-06-22T10:22:38;9.65;;;6.50;;
11962;SDS011;62678;52.130;5.584;2023-06-22T10:25:06;7.85;;;6.70;;
11962;SDS011;62678;52.130;5.584;2023-06-22T10:27:34;9.43;;;6.70;;
11962;SDS011;62678;52.130;5.584;2023-06-22T10:30:01;9.73;;;6.88;;
11962;SDS011;62678;52.130;5.584;2023-06-22T10:32:30;7.68;;;5.82;;
11962;SDS011;62678;52.130;5.584;2023-06-22T10:34:57;6.97;;;5.90;;
11962;SDS011;62678;52.130;5.584;2023-06-22T10:37:24;7.95;;;6.45;;
11962;SDS011;62678;52.130;5.584;2023-06-22T10:39:52;14.57;;;5.78;;
11962;SDS011;62678;52.130;5.584;2023-06-22T10:42:19;7.95;;;6.30;;
11962;SDS011;62678;52.130;5.584;2023-06-22T10:44:46;10.15;;;6.60;;
11962;SDS011;62678;52.130;5.584;2023-06-22T10:47:13;6.95;;;6.25;;
11962;SDS011;62678;52.130;5.584;2023-06-22T10:49:40;8.75;;;6.15;;
11962;SDS011;62678;52.130;5.584;2023-06-22T10:52:08;12.13;;;5.90;;
11962;SDS011;62678;52.130;5.584;2023-06-22T10:54:35;9.98;;;6.18;;
11962;SDS011;62678;52.130;5.584;2023-06-22T10:57:05;9.80;;;6.30;;
11962;SDS011;62678;52.130;5.584;2023-06-22T10:59:32;6.68;;;5.50;;
11962;SDS011;62678;52.130;5.584;2023-06-22T11:02:00;8.98;;;5.88;;
11962;SDS011;62678;52.130;5.584;2023-06-22T11:04:27;7.68;;;5.57;;
11962;SDS011;62678;52.130;5.584;2023-06-22T11:06:54;9.88;;;6.43;;
11962;SDS011;62678;52.130;5.584;2023-06-22T11:09:21;11.65;;;5.97;;
11962;SDS011;62678;52.130;5.584;2023-06-22T11:11:49;7.30;;;5.72;;
11962;SDS011;62678;52.130;5.584;2023-06-22T11:14:20;5.25;;;4.75;;
11962;SDS011;62678;52.130;5.584;2023-06-22T11:16:47;7.05;;;5.15;;
11962;SDS011;62678;52.130;5.584;2023-06-22T11:19:14;8.75;;;5.35;;
11962;SDS011;62678;52.130;5.584;2023-06-22T11:21:41;7.90;;;5.88;;
11962;SDS011;62678;52.130;5.584;2023-06-22T11:24:09;7.90;;;5.80;;
11962;SDS011;62678;52.130;5.584;2023-06-22T11:26:36;7.20;;;6.40;;
11962;SDS011;62678;52.130;5.584;2023-06-22T11:29:03;8.35;;;6.30;;
11962;SDS011;62678;52.130;5.584;2023-06-22T11:31:32;9.18;;;7.15;;
11962;SDS011;62678;52.130;5.584;2023-06-22T11:33:59;8.18;;;6.75;;
11962;SDS011;62678;52.130;5.584;2023-06-22T11:36:26;9.68;;;7.15;;
11962;SDS011;62678;52.130;5.584;2023-06-22T11:38:54;8.63;;;7.25;;
11962;SDS011;62678;52.130;5.584;2023-06-22T11:41:21;7.55;;;6.63;;
11962;SDS011;62678;52.130;5.584;2023-06-22T11:43:48;8.32;;;7.00;;
11962;SDS011;62678;52.130;5.584;2023-06-22T11:46:15;8.77;;;7.22;;
11962;SDS011;62678;52.130;5.584;2023-06-22T11:48:44;10.95;;;7.82;;
11962;SDS011;62678;52.130;5.584;2023-06-22T11:51:11;10.70;;;7.43;;
11962;SDS011;62678;52.130;5.584;2023-06-22T11:53:38;7.93;;;7.05;;
11962;SDS011;62678;52.130;5.584;2023-06-22T11:56:05;9.63;;;7.82;;
11962;SDS011;62678;52.130;5.584;2023-06-22T11:58:32;8.73;;;6.90;;
11962;SDS011;62678;52.130;5.584;2023-06-22T12:00:59;8.65;;;7.25;;
11962;SDS011;62678;52.130;5.584;2023-06-22T12:03:26;9.05;;;7.20;;
11962;SDS011;62678;52.130;5.584;2023-06-22T12:05:55;9.70;;;7.43;;
11962;SDS011;62678;52.130;5.584;2023-06-22T12:08:22;10.50;;;8.00;;
11962;SDS011;62678;52.130;5.584;2023-06-22T12:10:49;10.40;;;7.35;;
11962;SDS011;62678;52.130;5.584;2023-06-22T12:13:17;9.13;;;7.72;;
11962;SDS011;62678;52.130;5.584;2023-06-22T12:15:44;9.55;;;7.00;;
11962;SDS011;62678;52.130;5.584;2023-06-22T12:18:11;8.55;;;7.32;;
11962;SDS011;62678;52.130;5.584;2023-06-22T12:20:39;10.85;;;8.00;;
11962;SDS011;62678;52.130;5.584;2023-06-22T12:23:08;10.68;;;8.60;;
11962;SDS011;62678;52.130;5.584;2023-06-22T12:25:34;13.73;;;9.57;;
11962;SDS011;62678;52.130;5.584;2023-06-22T12:28:01;12.48;;;9.95;;
11962;SDS011;62678;52.130;5.584;2023-06-22T12:30:29;12.15;;;10.32;;
11962;SDS011;62678;52.130;5.584;2023-06-22T12:32:56;14.90;;;11.05;;
11962;SDS011;62678;52.130;5.584;2023-06-22T12:35:23;13.63;;;11.02;;
11962;SDS011;62678;52.130;5.584;2023-06-22T12:37:50;12.35;;;11.05;;
11962;SDS011;62678;52.130;5.584;2023-06-22T12:40:19;13.52;;;11.25;;
11962;SDS011;62678;52.130;5.584;2023-06-22T12:42:46;14.65;;;11.70;;
11962;SDS011;62678;52.130;5.584;2023-06-22T12:45:14;16.15;;;12.20;;
11962;SDS011;62678;52.130;5.584;2023-06-22T12:47:41;14.88;;;11.50;;
11962;SDS011;62678;52.130;5.584;2023-06-22T12:50:08;15.15;;;13.60;;
11962;SDS011;62678;52.130;5.584;2023-06-22T12:52:36;16.67;;;12.88;;
11962;SDS011;62678;52.130;5.584;2023-06-22T12:55:06;16.58;;;13.90;;
11962;SDS011;62678;52.130;5.584;2023-06-22T12:57:35;15.77;;;12.82;;
11962;SDS011;62678;52.130;5.584;2023-06-22T13:00:02;16.33;;;13.77;;
11962;SDS011;62678;52.130;5.584;2023-06-22T13:02:30;15.20;;;13.32;;
11962;SDS011;62678;52.130;5.584;2023-06-22T13:04:57;21.08;;;15.13;;
11962;SDS011;62678;52.130;5.584;2023-06-22T13:07:24;15.98;;;13.88;;
11962;SDS011;62678;52.130;5.584;2023-06-22T13:09:51;18.38;;;15.43;;
11962;SDS011;62678;52.130;5.584;2023-06-22T13:12:19;16.75;;;15.02;;
11962;SDS011;62678;52.130;5.584;2023-06-22T13:14:47;16.13;;;14.60;;
11962;SDS011;62678;52.130;5.584;2023-06-22T13:17:14;17.40;;;14.63;;
11962;SDS011;62678;52.130;5.584;2023-06-22T13:19:41;16.73;;;14.40;;
11962;SDS011;62678;52.130;5.584;2023-06-22T13:22:25;17.52;;;14.32;;
11962;SDS011;62678;52.130;5.584;2023-06-22T13:24:54;18.08;;;14.30;;
11962;SDS011;62678;52.130;5.584;2023-06-22T13:27:21;15.95;;;14.02;;
11962;SDS011;62678;52.130;5.584;2023-06-22T13:29:49;16.40;;;14.65;;
11962;SDS011;62678;52.130;5.584;2023-06-22T13:32:16;16.52;;;14.65;;
11962;SDS011;62678;52.130;5.584;2023-06-22T13:34:43;16.83;;;15.02;;
11962;SDS011;62678;52.130;5.584;2023-06-22T13:37:10;16.23;;;14.57;;
11962;SDS011;62678;52.130;5.584;2023-06-22T13:39:37;17.13;;;15.30;;
11962;SDS011;62678;52.130;5.584;2023-06-22T13:42:04;17.90;;;15.38;;
11962;SDS011;62678;52.130;5.584;2023-06-22T13:44:31;17.63;;;15.80;;
11962;SDS011;62678;52.130;5.584;2023-06-22T13:47:00;17.05;;;14.23;;
11962;SDS011;62678;52.130;5.584;2023-06-22T13:49:27;21.30;;;17.20;;
11962;SDS011;62678;52.130;5.584;2023-06-22T13:51:54;18.33;;;16.40;;
11962;SDS011;62678;52.130;5.584;2023-06-22T13:54:21;18.25;;;15.90;;
11962;SDS011;62678;52.130;5.584;2023-06-22T13:56:48;17.95;;;15.57;;
11962;SDS011;62678;52.130;5.584;2023-06-22T13:59:15;18.17;;;15.50;;
11962;SDS011;62678;52.130;5.584;2023-06-22T14:01:41;18.27;;;15.98;;
11962;SDS011;62678;52.130;5.584;2023-06-22T14:04:10;21.48;;;16.77;;
11962;SDS011;62678;52.130;5.584;2023-06-22T14:06:37;20.88;;;16.20;;
11962;SDS011;62678;52.130;5.584;2023-06-22T14:09:05;19.02;;;17.10;;
11962;SDS011;62678;52.130;5.584;2023-06-22T14:11:32;18.50;;;15.57;;
11962;SDS011;62678;52.130;5.584;2023-06-22T14:13:59;17.67;;;15.77;;
11962;SDS011;62678;52.130;5.584;2023-06-22T14:16:26;15.73;;;14.20;;
11962;SDS011;62678;52.130;5.584;2023-06-22T14:18:52;20.83;;;15.25;;
11962;SDS011;62678;52.130;5.584;2023-06-22T14:21:21;15.80;;;13.95;;
11962;SDS011;62678;52.130;5.584;2023-06-22T14:23:48;15.45;;;13.45;;
11962;SDS011;62678;52.130;5.584;2023-06-22T14:26:15;19.48;;;13.93;;
11962;SDS011;62678;52.130;5.584;2023-06-22T14:28:43;15.00;;;13.50;;
11962;SDS011;62678;52.130;5.584;2023-06-22T14:31:13;16.77;;;13.65;;
11962;SDS011;62678;52.130;5.584;2023-06-22T14:33:40;15.68;;;13.43;;